Time;durP1;ratioP1;P1;durP2;ratioP2;P2;SDS_P1;SDS_P2;PMS_P1;PMS_P2;Temp;Humidity;BMP_temperature;BMP_pressure;BME280_temperature;BME280_humidity;BME280_pressure;Samples;Min_cycle;Max_cycle;Signal;HPM_P1;HPM_P2
2024/03/03 00:01:51;;;;;;;27.00;17.97;;;11.00;99.90;;;;;;5055044;28;20535;-84
2024/03/03 00:04:19;;;;;;;22.27;18.07;;;11.00;99.90;;;;;;5063876;28;20453;-84
2024/03/03 00:06:47;;;;;;;24.57;18.73;;;11.00;99.90;;;;;;5062492;28;21073;-83
2024/03/03 00:09:15;;;;;;;25.20;17.50;;;10.90;99.90;;;;;;5056132;28;20479;-82
2024/03/03 00:11:45;;;;;;;25.07;18.30;;;10.90;99.90;;;;;;5064314;28;20486;-83
2024/03/03 00:14:14;;;;;;;20.47;16.87;;;11.00;99.90;;;;;;5058147;28;20460;-84
2024/03/03 00:16:43;;;;;;;26.90;17.90;;;11.00;99.90;;;;;;5059760;28;20490;-84
2024/03/03 00:19:11;;;;;;;27.80;19.10;;;11.00;99.90;;;;;;5062261;28;20449;-83
2024/03/03 00:21:40;;;;;;;25.50;17.43;;;11.00;99.90;;;;;;5058070;28;20460;-84
2024/03/03 00:24:08;;;;;;;26.73;19.60;;;11.00;99.90;;;;;;5062425;28;20520;-84
2024/03/03 00:26:36;;;;;;;29.13;20.37;;;11.00;99.90;;;;;;5064682;28;20481;-84
2024/03/03 00:29:06;;;;;;;31.13;20.27;;;10.90;99.90;;;;;;5062614;28;20463;-87
2024/03/03 00:31:41;;;;;;;30.77;20.47;;;11.00;99.90;;;;;;5059835;28;20453;-86
2024/03/03 00:34:09;;;;;;;30.83;19.57;;;11.00;99.90;;;;;;5056901;28;20461;-86
2024/03/03 00:36:37;;;;;;;26.80;18.90;;;10.90;99.90;;;;;;5061585;28;20482;-85
2024/03/03 00:39:06;;;;;;;27.17;19.93;;;10.90;99.90;;;;;;5056430;28;21002;-84
2024/03/03 00:41:34;;;;;;;24.70;18.83;;;10.90;99.90;;;;;;5059368;28;20494;-85
2024/03/03 00:44:02;;;;;;;29.50;21.30;;;10.90;99.90;;;;;;5056731;28;20521;-85
2024/03/03 00:46:32;;;;;;;32.03;19.70;;;10.90;99.90;;;;;;5060497;28;20504;-84
2024/03/03 00:49:00;;;;;;;23.23;17.40;;;10.90;99.90;;;;;;5055783;28;20471;-83
2024/03/03 00:51:28;;;;;;;30.27;20.13;;;10.90;99.90;;;;;;5061431;28;20529;-85
2024/03/03 00:53:57;;;;;;;30.20;19.63;;;10.80;99.90;;;;;;5061787;28;20454;-83
2024/03/03 00:56:26;;;;;;;27.93;19.90;;;10.80;99.90;;;;;;5059591;28;21184;-83
2024/03/03 00:58:54;;;;;;;27.93;20.17;;;10.80;99.90;;;;;;5062905;28;20451;-84
2024/03/03 01:01:23;;;;;;;26.17;20.30;;;10.80;99.90;;;;;;5065527;28;20451;-85
2024/03/03 01:03:52;;;;;;;28.30;20.47;;;10.80;99.90;;;;;;5062189;28;20509;-85
2024/03/03 01:06:21;;;;;;;24.20;19.00;;;10.70;1.00;;;;;;5060149;28;20510;-85
2024/03/03 01:08:49;;;;;;;31.40;20.17;;;10.80;1.00;;;;;;5061585;28;20479;-84
2024/03/03 01:11:17;;;;;;;27.87;19.40;;;10.80;99.90;;;;;;5060736;28;20451;-85
2024/03/03 01:13:45;;;;;;;23.90;18.30;;;10.80;99.90;;;;;;5061081;28;20891;-85
2024/03/03 01:16:14;;;;;;;29.10;19.20;;;10.70;99.90;;;;;;5060141;28;21078;-85
2024/03/03 01:18:42;;;;;;;33.10;21.80;;;10.70;99.90;;;;;;5056564;28;20955;-84
2024/03/03 01:21:12;;;;;;;28.90;20.47;;;10.70;99.90;;;;;;5057990;28;20527;-85
2024/03/03 01:23:40;;;;;;;28.63;20.43;;;10.80;99.90;;;;;;5062716;28;20476;-85
2024/03/03 01:26:08;;;;;;;27.57;20.20;;;10.70;99.90;;;;;;5059678;28;20545;-84
2024/03/03 01:28:36;;;;;;;27.77;19.10;;;10.70;99.90;;;;;;5062728;28;20443;-84
2024/03/03 01:31:05;;;;;;;26.23;18.70;;;10.70;99.90;;;;;;5061211;28;20902;-84
2024/03/03 01:33:33;;;;;;;26.33;20.57;;;10.60;99.90;;;;;;5058433;28;20458;-84
2024/03/03 01:36:01;;;;;;;28.53;20.60;;;10.50;99.90;;;;;;5057929;28;20486;-85
2024/03/03 01:38:31;;;;;;;30.60;20.80;;;10.40;1.00;;;;;;5057868;28;20969;-84
2024/03/03 01:40:59;;;;;;;31.23;20.53;;;10.40;1.00;;;;;;5058635;28;20464;-86
2024/03/03 01:43:27;;;;;;;26.13;19.30;;;10.50;1.00;;;;;;5060443;28;20505;-85
2024/03/03 01:45:55;;;;;;;29.10;20.30;;;10.50;1.00;;;;;;5055794;28;20551;-85
2024/03/03 01:48:24;;;;;;;25.13;18.80;;;10.50;1.00;;;;;;5056588;28;20942;-84
2024/03/03 01:50:55;;;;;;;24.23;18.00;;;10.50;99.90;;;;;;5056816;28;20493;-85
2024/03/03 01:53:24;;;;;;;29.53;20.30;;;10.50;99.90;;;;;;5056070;28;20454;-83
2024/03/03 01:55:55;;;;;;;28.63;18.60;;;10.40;99.90;;;;;;5058055;28;20459;-83
2024/03/03 01:58:24;;;;;;;26.27;18.50;;;10.40;99.90;;;;;;5057460;28;20469;-84
2024/03/03 02:00:53;;;;;;;33.07;20.30;;;10.30;99.90;;;;;;5059767;28;20527;-86
2024/03/03 02:03:21;;;;;;;29.37;19.10;;;10.30;99.90;;;;;;5060910;28;20476;-84
2024/03/03 02:05:49;;;;;;;28.17;19.00;;;10.30;99.90;;;;;;5059807;28;20470;-84
2024/03/03 02:08:18;;;;;;;25.90;18.70;;;10.30;99.90;;;;;;5056973;28;20454;-84
2024/03/03 02:10:48;;;;;;;28.00;18.80;;;10.30;1.00;;;;;;5060396;28;20473;-85
2024/03/03 02:13:17;;;;;;;25.40;17.40;;;10.30;99.90;;;;;;5056812;28;20452;-85
2024/03/03 02:15:46;;;;;;;30.73;19.23;;;10.20;99.90;;;;;;5052626;28;20969;-83
2024/03/03 02:18:14;;;;;;;25.63;19.97;;;10.10;99.90;;;;;;5061417;28;20452;-85
2024/03/03 02:20:42;;;;;;;29.40;19.13;;;10.00;99.90;;;;;;5056831;28;20431;-86
2024/03/03 02:23:12;;;;;;;26.40;19.10;;;9.90;1.00;;;;;;5056340;28;20591;-85
2024/03/03 02:25:41;;;;;;;27.20;19.90;;;9.90;1.00;;;;;;5053107;28;20483;-86
2024/03/03 02:28:10;;;;;;;29.30;19.97;;;9.90;1.00;;;;;;5058689;28;20466;-85
2024/03/03 02:30:38;;;;;;;31.97;20.93;;;9.90;1.00;;;;;;5054116;28;21179;-84
2024/03/03 02:33:06;;;;;;;25.23;17.93;;;9.90;1.00;;;;;;5056501;28;21186;-85
2024/03/03 02:35:35;;;;;;;26.70;19.80;;;9.90;1.00;;;;;;5058937;28;20472;-85
2024/03/03 02:38:03;;;;;;;25.60;18.97;;;10.00;1.00;;;;;;5063832;28;20447;-83
2024/03/03 02:40:33;;;;;;;26.23;19.10;;;9.90;1.00;;;;;;5062197;28;20860;-84
2024/03/03 02:43:01;;;;;;;29.07;19.33;;;9.80;1.00;;;;;;5059508;28;20455;-84
2024/03/03 02:45:30;;;;;;;24.27;19.03;;;9.70;1.00;;;;;;5058473;28;20466;-86
2024/03/03 02:47:58;;;;;;;31.30;20.30;;;9.70;1.00;;;;;;5061382;28;20485;-84
2024/03/03 02:50:26;;;;;;;24.87;18.20;;;9.70;1.00;;;;;;5061111;28;20488;-83
2024/03/03 02:52:54;;;;;;;24.70;18.00;;;9.70;1.00;;;;;;5059120;28;20543;-85
2024/03/03 02:55:22;;;;;;;26.97;19.73;;;9.70;1.00;;;;;;5060376;28;20552;-84
2024/03/03 02:57:52;;;;;;;28.63;18.27;;;9.70;1.00;;;;;;5058813;28;20467;-83
2024/03/03 03:00:20;;;;;;;25.67;18.43;;;9.70;1.00;;;;;;5054757;28;20827;-85
2024/03/03 03:02:48;;;;;;;25.97;20.00;;;9.70;99.90;;;;;;5057093;28;20547;-85
2024/03/03 03:05:16;;;;;;;25.13;18.17;;;9.60;1.00;;;;;;5058957;28;20509;-85
2024/03/03 03:07:44;;;;;;;26.30;18.30;;;9.60;99.90;;;;;;5065012;28;20455;-85
2024/03/03 03:10:14;;;;;;;31.53;18.60;;;9.50;99.90;;;;;;5056234;28;20463;-84
2024/03/03 03:12:42;;;;;;;26.97;19.87;;;9.50;99.90;;;;;;5059032;28;20969;-84
2024/03/03 03:15:12;;;;;;;26.40;18.80;;;9.40;1.00;;;;;;5058838;28;20467;-85
2024/03/03 03:17:40;;;;;;;29.53;21.30;;;9.40;1.00;;;;;;5058246;28;20462;-84
2024/03/03 03:20:09;;;;;;;27.40;18.80;;;9.50;1.00;;;;;;5053118;28;20449;-85
2024/03/03 03:22:37;;;;;;;28.50;18.47;;;9.40;99.90;;;;;;5058819;28;20505;-83
2024/03/03 03:25:06;;;;;;;27.07;19.07;;;9.20;99.90;;;;;;5058512;28;20454;-84
2024/03/03 03:27:34;;;;;;;23.77;17.97;;;9.20;1.00;;;;;;5060718;28;20483;-85
2024/03/03 03:30:06;;;;;;;27.50;17.87;;;9.30;1.00;;;;;;5058339;28;20471;-83
2024/03/03 03:32:36;;;;;;;22.13;17.10;;;9.30;1.00;;;;;;5062169;28;20546;-83
2024/03/03 03:35:04;;;;;;;26.93;17.80;;;9.30;99.90;;;;;;5057926;28;21000;-84
2024/03/03 03:37:33;;;;;;;26.97;18.47;;;9.20;1.00;;;;;;5060366;28;20454;-84
2024/03/03 03:40:01;;;;;;;26.13;18.20;;;9.20;1.00;;;;;;5060432;28;20832;-85
2024/03/03 03:42:29;;;;;;;27.43;19.17;;;9.20;1.00;;;;;;5055658;28;20514;-84
2024/03/03 03:44:57;;;;;;;26.50;18.27;;;9.30;99.90;;;;;;5059845;28;20461;-84
2024/03/03 03:47:25;;;;;;;28.30;19.40;;;9.30;1.00;;;;;;5063259;28;20538;-84
2024/03/03 03:49:55;;;;;;;28.00;19.57;;;9.30;99.90;;;;;;5060590;28;20538;-84
2024/03/03 03:52:23;;;;;;;28.13;17.97;;;9.30;1.00;;;;;;5063607;28;20444;-84
2024/03/03 03:54:51;;;;;;;27.87;19.30;;;9.30;99.90;;;;;;5069101;28;20461;-83
2024/03/03 03:57:20;;;;;;;29.30;19.77;;;9.30;99.90;;;;;;5071508;28;20448;-84
2024/03/03 03:59:48;;;;;;;30.50;19.37;;;9.30;99.90;;;;;;5066091;28;20451;-83
2024/03/03 04:02:16;;;;;;;28.90;19.83;;;9.30;99.90;;;;;;5065317;28;20456;-84
2024/03/03 04:04:44;;;;;;;23.50;18.17;;;9.20;1.00;;;;;;5066978;28;20478;-84
2024/03/03 04:07:14;;;;;;;31.10;20.03;;;9.20;1.00;;;;;;5061934;28;20478;-85
2024/03/03 04:09:42;;;;;;;26.97;19.40;;;9.20;1.00;;;;;;5063622;28;20447;-86
2024/03/03 04:12:10;;;;;;;32.13;20.30;;;9.20;1.00;;;;;;5069112;28;20468;-86
2024/03/03 04:14:38;;;;;;;30.50;18.87;;;9.10;1.00;;;;;;5065804;28;20462;-83
2024/03/03 04:17:07;;;;;;;30.60;20.57;;;9.10;1.00;;;;;;5066564;28;20523;-84
2024/03/03 04:19:35;;;;;;;27.73;19.30;;;9.10;1.00;;;;;;5066339;28;20533;-84
2024/03/03 04:22:03;;;;;;;29.23;19.20;;;9.10;1.00;;;;;;5060176;28;20539;-84
2024/03/03 04:24:33;;;;;;;28.50;19.47;;;9.10;1.00;;;;;;5066030;28;20534;-84
2024/03/03 04:27:03;;;;;;;30.97;21.23;;;9.20;1.00;;;;;;5059879;28;20471;-85
2024/03/03 04:29:32;;;;;;;20.97;16.67;;;9.20;1.00;;;;;;5060945;28;20463;-84
2024/03/03 04:32:01;;;;;;;26.20;18.43;;;9.20;1.00;;;;;;5058760;28;21119;-85
2024/03/03 04:34:29;;;;;;;26.40;18.90;;;9.00;1.00;;;;;;5058662;28;20508;-84
2024/03/03 04:36:57;;;;;;;28.67;20.50;;;9.10;99.90;;;;;;5056912;28;20480;-84
2024/03/03 04:39:25;;;;;;;21.83;16.20;;;9.20;1.00;;;;;;5060409;28;20866;-85
2024/03/03 04:41:54;;;;;;;24.97;17.90;;;9.10;99.90;;;;;;5057254;28;20443;-84
2024/03/03 04:44:22;;;;;;;27.37;19.50;;;9.00;99.90;;;;;;5063128;28;20536;-84
2024/03/03 04:46:50;;;;;;;30.20;19.17;;;8.90;1.00;;;;;;5062044;28;20478;-83
2024/03/03 04:49:19;;;;;;;30.20;19.73;;;8.90;1.00;;;;;;5059685;28;20482;-85
2024/03/03 04:51:47;;;;;;;29.00;19.60;;;9.00;1.00;;;;;;5059638;28;20483;-85
2024/03/03 04:54:15;;;;;;;25.60;18.10;;;9.10;1.00;;;;;;5058017;28;20465;-84
2024/03/03 04:56:44;;;;;;;27.70;19.70;;;9.10;1.00;;;;;;5057244;28;20487;-83
2024/03/03 04:59:13;;;;;;;28.17;20.00;;;9.00;1.00;;;;;;5060444;28;20451;-84
2024/03/03 05:01:42;;;;;;;30.40;21.00;;;9.00;1.00;;;;;;5054524;28;20467;-83
2024/03/03 05:04:11;;;;;;;29.13;20.63;;;9.00;1.00;;;;;;5055284;28;20467;-83
2024/03/03 05:06:44;;;;;;;28.50;21.33;;;9.10;1.00;;;;;;5053713;28;20483;-84
2024/03/03 05:09:12;;;;;;;26.10;17.47;;;9.10;1.00;;;;;;5056351;28;20494;-83
2024/03/03 05:11:41;;;;;;;29.10;20.30;;;9.10;1.00;;;;;;5056736;28;20464;-85
2024/03/03 05:14:09;;;;;;;30.07;18.87;;;9.00;1.00;;;;;;5063529;28;20581;-85
2024/03/03 05:16:39;;;;;;;31.70;21.37;;;8.90;1.00;;;;;;5056771;28;20531;-84
2024/03/03 05:19:08;;;;;;;28.57;20.37;;;8.80;1.00;;;;;;5056692;28;20563;-83
2024/03/03 05:21:37;;;;;;;27.70;21.30;;;8.80;1.00;;;;;;5055401;28;20466;-84
2024/03/03 05:24:05;;;;;;;27.40;20.27;;;8.90;1.00;;;;;;5058330;28;20446;-83
2024/03/03 05:26:33;;;;;;;27.50;19.33;;;9.00;1.00;;;;;;5063264;28;20487;-85
2024/03/03 05:29:03;;;;;;;31.60;22.37;;;9.00;1.00;;;;;;5057870;28;20472;-84
2024/03/03 05:31:39;;;;;;;25.40;18.97;;;9.00;1.00;;;;;;5058860;28;20463;-85
2024/03/03 05:34:12;;;;;;;27.80;20.23;;;9.00;1.00;;;;;;5058747;28;20450;-84
2024/03/03 05:36:41;;;;;;;29.50;20.83;;;9.00;1.00;;;;;;5060054;28;20475;-83
2024/03/03 05:39:10;;;;;;;30.53;21.10;;;9.00;1.00;;;;;;5057351;28;20510;-85
2024/03/03 05:41:39;;;;;;;29.63;19.77;;;8.90;1.00;;;;;;5059191;28;20468;-84
2024/03/03 05:44:07;;;;;;;26.70;19.93;;;8.90;1.00;;;;;;5054777;28;21002;-84
2024/03/03 05:46:36;;;;;;;25.50;18.30;;;8.90;1.00;;;;;;5060767;28;20481;-84
2024/03/03 05:49:05;;;;;;;30.17;21.50;;;8.90;1.00;;;;;;5058142;28;20956;-85
2024/03/03 05:51:34;;;;;;;32.70;21.13;;;8.90;1.00;;;;;;5058095;28;20551;-84
2024/03/03 05:54:03;;;;;;;30.70;22.27;;;8.90;1.00;;;;;;5058275;28;20546;-85
2024/03/03 05:56:31;;;;;;;27.63;18.73;;;8.80;1.00;;;;;;5056591;28;20503;-84
2024/03/03 05:59:02;;;;;;;27.70;20.83;;;8.70;1.00;;;;;;5055502;28;20966;-85
2024/03/03 06:01:31;;;;;;;30.80;20.97;;;8.80;1.00;;;;;;5057732;28;20449;-84
2024/03/03 06:03:59;;;;;;;27.33;20.03;;;8.80;1.00;;;;;;5056246;28;20451;-84
2024/03/03 06:06:27;;;;;;;26.13;19.60;;;8.80;1.00;;;;;;5057741;28;20490;-84
2024/03/03 06:08:57;;;;;;;33.07;21.63;;;8.80;1.00;;;;;;5060072;28;20482;-84
2024/03/03 06:11:25;;;;;;;29.23;20.20;;;8.90;1.00;;;;;;5061615;28;20481;-85
2024/03/03 06:13:54;;;;;;;31.00;21.37;;;8.90;1.00;;;;;;5065709;28;21007;-85
2024/03/03 06:16:22;;;;;;;26.00;19.43;;;8.90;1.00;;;;;;5067172;28;20468;-85
2024/03/03 06:18:50;;;;;;;26.63;19.80;;;8.90;1.00;;;;;;5061198;28;20447;-85
2024/03/03 06:21:18;;;;;;;29.57;21.13;;;9.00;1.00;;;;;;5057769;28;20460;-84
2024/03/03 06:23:46;;;;;;;30.70;22.77;;;9.00;1.00;;;;;;5061481;28;20448;-84
2024/03/03 06:26:16;;;;;;;29.47;20.07;;;9.10;1.00;;;;;;5068346;28;20493;-84
2024/03/03 06:28:45;;;;;;;29.20;19.83;;;9.00;1.00;;;;;;5063854;28;20701;-84
2024/03/03 06:31:13;;;;;;;28.03;20.50;;;9.00;1.00;;;;;;5065304;28;20462;-84
2024/03/03 06:33:41;;;;;;;24.90;19.23;;;9.00;1.00;;;;;;5060850;28;20534;-84
2024/03/03 06:36:17;;;;;;;34.80;21.50;;;8.90;1.00;;;;;;5063453;28;20455;-85
2024/03/03 06:38:45;;;;;;;26.77;19.23;;;9.00;1.00;;;;;;5068872;28;20489;-83
2024/03/03 06:41:14;;;;;;;27.73;19.53;;;9.00;1.00;;;;;;5063924;28;20513;-84
2024/03/03 06:43:44;;;;;;;29.90;18.77;;;9.10;1.00;;;;;;5060248;28;20453;-85
2024/03/03 06:46:13;;;;;;;28.90;20.00;;;9.10;1.00;;;;;;5059090;28;20473;-84
2024/03/03 06:48:41;;;;;;;33.17;22.23;;;9.20;1.00;;;;;;5060924;28;20497;-84
2024/03/03 06:51:12;;;;;;;29.23;19.93;;;9.10;1.00;;;;;;5060588;28;20621;-86
2024/03/03 06:53:41;;;;;;;29.77;20.60;;;9.20;1.00;;;;;;5060609;28;20467;-84
2024/03/03 06:56:14;;;;;;;31.27;21.00;;;9.20;1.00;;;;;;5061930;28;20469;-85
2024/03/03 06:58:45;;;;;;;28.23;20.10;;;9.30;1.00;;;;;;5063910;28;20541;-84
2024/03/03 07:01:13;;;;;;;30.57;20.73;;;9.30;1.00;;;;;;5059761;28;20458;-84
2024/03/03 07:04:07;;;;;;;31.80;21.07;;;9.40;1.00;;;;;;5061338;28;20531;-86
2024/03/03 07:06:36;;;;;;;30.57;22.00;;;9.40;1.00;;;;;;5062180;28;21094;-87
2024/03/03 07:09:05;;;;;;;35.90;24.10;;;9.50;1.00;;;;;;5060691;28;20466;-85
2024/03/03 07:11:33;;;;;;;40.90;27.83;;;9.50;1.00;;;;;;5063700;28;20443;-84
2024/03/03 07:14:03;;;;;;;37.00;27.83;;;9.50;1.00;;;;;;5065836;28;20534;-86
2024/03/03 07:16:31;;;;;;;47.53;28.43;;;9.50;1.00;;;;;;5067459;28;20467;-83
2024/03/03 07:19:00;;;;;;;42.10;28.23;;;9.50;1.00;;;;;;5060349;28;20471;-84
2024/03/03 07:21:29;;;;;;;42.43;28.00;;;9.50;8.40;;;;;;5066986;28;20451;-84
2024/03/03 07:23:57;;;;;;;37.30;26.33;;;9.60;53.90;;;;;;5064964;28;20490;-82
2024/03/03 07:26:26;;;;;;;33.60;23.20;;;9.70;60.80;;;;;;5063298;28;20474;-84
2024/03/03 07:28:55;;;;;;;33.90;22.87;;;9.60;19.00;;;;;;5063055;28;20452;-81
2024/03/03 07:31:24;;;;;;;33.07;22.40;;;9.70;53.50;;;;;;5061170;28;20451;-82
2024/03/03 07:33:52;;;;;;;33.60;21.77;;;9.60;69.70;;;;;;5061763;28;20510;-80
2024/03/03 07:36:20;;;;;;;29.90;21.10;;;9.70;91.90;;;;;;5060744;28;20474;-79
2024/03/03 07:38:49;;;;;;;32.67;21.17;;;9.70;99.90;;;;;;5072351;28;20521;-82
2024/03/03 07:41:17;;;;;;;27.57;19.63;;;10.00;1.00;;;;;;5068576;28;20451;-80
2024/03/03 07:43:46;;;;;;;28.90;18.73;;;10.00;1.00;;;;;;5059802;28;20471;-81
2024/03/03 07:46:14;;;;;;;26.03;19.10;;;9.90;1.00;;;;;;5066879;28;21277;-83
2024/03/03 07:48:44;;;;;;;26.48;20.30;;;10.00;1.00;;;;;;5063541;28;20444;-81
2024/03/03 07:51:13;;;;;;;27.03;17.83;;;9.90;1.00;;;;;;5058556;28;20208;-84
2024/03/03 07:53:41;;;;;;;27.63;16.33;;;10.10;1.00;;;;;;5054635;28;20468;-80
2024/03/03 07:56:10;;;;;;;23.00;16.87;;;10.10;1.00;;;;;;5062792;28;20455;-82
2024/03/03 07:58:38;;;;;;;24.90;17.03;;;10.20;1.00;;;;;;5062271;28;20506;-83
2024/03/03 08:01:06;;;;;;;29.23;18.27;;;10.20;1.00;;;;;;5056581;28;20447;-82
2024/03/03 08:03:34;;;;;;;26.13;17.70;;;10.20;1.00;;;;;;5062357;28;20448;-86
2024/03/03 08:06:04;;;;;;;27.50;18.30;;;10.10;1.00;;;;;;5060428;28;20475;-82
2024/03/03 08:08:32;;;;;;;23.93;18.07;;;10.10;1.00;;;;;;5062260;28;20448;-81
2024/03/03 08:11:01;;;;;;;23.53;16.90;;;10.10;1.00;;;;;;5056656;28;21195;-83
2024/03/03 08:13:29;;;;;;;18.63;14.77;;;10.20;1.00;;;;;;5066590;28;21319;-82
2024/03/03 08:15:57;;;;;;;17.80;14.80;;;10.20;1.00;;;;;;5064360;28;20502;-81
2024/03/03 08:18:25;;;;;;;20.60;14.60;;;10.20;99.90;;;;;;5065466;28;20448;-82
2024/03/03 08:20:53;;;;;;;17.47;13.80;;;10.30;99.90;;;;;;5064191;28;20534;-81
2024/03/03 08:23:23;;;;;;;18.33;14.03;;;10.30;99.90;;;;;;5062205;28;20442;-78
2024/03/03 08:25:51;;;;;;;18.73;13.00;;;10.40;99.90;;;;;;5057312;28;20493;-83
2024/03/03 08:28:19;;;;;;;17.97;14.47;;;10.40;99.90;;;;;;5057270;28;20458;-80
2024/03/03 08:30:47;;;;;;;23.00;15.00;;;10.40;99.90;;;;;;5060420;28;20448;-82
2024/03/03 08:33:16;;;;;;;25.03;15.90;;;10.40;99.90;;;;;;5059040;28;20476;-81
2024/03/03 08:35:44;;;;;;;24.07;16.67;;;10.50;99.90;;;;;;5058899;28;20606;-80
2024/03/03 08:38:12;;;;;;;20.40;14.83;;;10.60;99.90;;;;;;5059628;28;20883;-81
2024/03/03 08:40:43;;;;;;;20.00;14.20;;;10.50;99.90;;;;;;5058813;28;20450;-78
2024/03/03 08:43:11;;;;;;;19.77;14.00;;;10.50;99.90;;;;;;5052893;28;20450;-80
2024/03/03 08:45:39;;;;;;;16.90;13.40;;;10.50;99.90;;;;;;5057026;28;21025;-80
2024/03/03 08:48:08;;;;;;;14.83;13.33;;;10.40;99.90;;;;;;5052089;28;20465;-79
2024/03/03 08:50:36;;;;;;;21.43;13.77;;;10.50;99.90;;;;;;5056009;28;20447;-79
2024/03/03 08:53:05;;;;;;;19.63;13.67;;;10.50;99.90;;;;;;5057904;28;20474;-81
2024/03/03 08:55:33;;;;;;;19.57;15.37;;;10.60;99.90;;;;;;5059803;28;20536;-80
2024/03/03 08:58:03;;;;;;;19.00;13.67;;;10.70;99.90;;;;;;5055346;28;20958;-80
2024/03/03 09:00:31;;;;;;;18.57;12.90;;;10.80;99.90;;;;;;5054840;28;20446;-79
2024/03/03 09:03:01;;;;;;;13.83;12.40;;;10.80;99.90;;;;;;5050979;28;21274;-81
2024/03/03 09:05:29;;;;;;;18.10;12.43;;;10.80;99.90;;;;;;5058568;28;20507;-80
2024/03/03 09:07:58;;;;;;;18.40;13.10;;;10.90;99.90;;;;;;5057103;28;20456;-81
2024/03/03 09:10:26;;;;;;;13.43;12.00;;;10.90;99.90;;;;;;5059324;28;20791;-81
2024/03/03 09:12:54;;;;;;;16.80;12.50;;;10.90;99.90;;;;;;5050244;28;20471;-83
2024/03/03 09:15:24;;;;;;;15.23;11.00;;;10.90;99.90;;;;;;5059884;28;21061;-81
2024/03/03 09:17:52;;;;;;;12.43;11.10;;;11.00;99.90;;;;;;5056833;28;20519;-79
2024/03/03 09:20:21;;;;;;;12.40;10.30;;;11.10;99.90;;;;;;5055197;28;20465;-83
2024/03/03 09:22:49;;;;;;;12.90;10.90;;;11.10;99.90;;;;;;5054196;28;20465;-81
2024/03/03 09:25:19;;;;;;;15.33;11.53;;;11.10;99.90;;;;;;5056742;28;20471;-80
2024/03/03 09:27:47;;;;;;;14.20;12.50;;;11.20;99.90;;;;;;5062010;28;20438;-79
2024/03/03 09:30:16;;;;;;;11.97;10.43;;;11.30;99.90;;;;;;5058889;28;20447;-82
2024/03/03 09:32:51;;;;;;;12.93;10.47;;;11.30;99.90;;;;;;5055235;28;20477;-80
2024/03/03 09:35:19;;;;;;;12.30;10.23;;;11.30;99.90;;;;;;5053112;28;21101;-82
2024/03/03 09:37:49;;;;;;;13.13;10.73;;;11.30;99.90;;;;;;5056489;28;21175;-82
2024/03/03 09:40:19;;;;;;;11.83;10.60;;;11.40;99.90;;;;;;5053310;28;21159;-80
2024/03/03 09:42:49;;;;;;;12.90;10.97;;;11.50;99.90;;;;;;5055223;28;20569;-80
2024/03/03 09:45:20;;;;;;;13.27;9.80;;;11.60;99.90;;;;;;5056790;28;20687;-78
2024/03/03 09:47:51;;;;;;;13.57;9.23;;;11.80;99.90;;;;;;5058173;28;20510;-77
2024/03/03 09:50:22;;;;;;;8.90;7.83;;;12.00;99.90;;;;;;5056421;28;20478;-79
2024/03/03 09:52:53;;;;;;;9.40;8.43;;;12.20;99.90;;;;;;5062865;28;20547;-78
2024/03/03 09:55:21;;;;;;;8.13;7.30;;;12.50;99.90;;;;;;5056638;28;21049;-78
2024/03/03 09:57:50;;;;;;;8.33;6.97;;;13.00;99.90;;;;;;5056802;28;20470;-80
2024/03/03 10:00:18;;;;;;;8.00;7.20;;;13.40;99.90;;;;;;5059566;28;20567;-78
2024/03/03 10:02:48;;;;;;;8.97;8.27;;;13.60;99.90;;;;;;5061482;28;20447;-78
2024/03/03 10:05:26;;;;;;;7.40;6.43;;;13.80;99.90;;;;;;5060892;28;20465;-78
2024/03/03 10:08:00;;;;;;;6.53;5.93;;;13.90;99.90;;;;;;5059139;28;20472;-78
2024/03/03 10:10:31;;;;;;;9.33;8.20;;;14.10;99.90;;;;;;5058444;28;21013;-80
2024/03/03 10:13:02;;;;;;;6.67;6.07;;;14.20;99.90;;;;;;5061972;28;20465;-79
2024/03/03 10:15:31;;;;;;;6.70;5.67;;;14.20;99.90;;;;;;5059588;28;20479;-79
2024/03/03 10:18:02;;;;;;;6.77;6.03;;;14.30;99.90;;;;;;5059876;28;20982;-78
2024/03/03 10:20:32;;;;;;;5.87;5.37;;;14.40;99.90;;;;;;5060988;28;20961;-79
2024/03/03 10:23:00;;;;;;;9.07;7.30;;;14.80;99.90;;;;;;5055075;28;20513;-80
2024/03/03 10:25:30;;;;;;;5.40;4.90;;;15.30;99.90;;;;;;5059321;28;20906;-78
2024/03/03 10:28:12;;;;;;;5.77;4.90;;;15.70;99.90;;;;;;5060313;28;21308;-78
2024/03/03 10:30:41;;;;;;;4.87;4.47;;;16.10;99.90;;;;;;5061331;28;20456;-80
2024/03/03 10:33:10;;;;;;;5.50;5.07;;;16.00;99.90;;;;;;5058939;28;20452;-78
2024/03/03 10:35:39;;;;;;;4.80;4.50;;;15.80;99.90;;;;;;5058690;28;21072;-78
2024/03/03 10:38:10;;;;;;;6.30;5.60;;;15.60;99.90;;;;;;5058195;28;20488;-79
2024/03/03 10:40:38;;;;;;;7.13;6.43;;;15.40;99.90;;;;;;5053303;28;20474;-79
2024/03/03 10:43:07;;;;;;;3.43;3.10;;;15.10;99.90;;;;;;5060358;28;20539;-80
2024/03/03 10:45:35;;;;;;;5.10;4.60;;;15.20;99.90;;;;;;5059985;28;20548;-79
2024/03/03 10:48:04;;;;;;;3.40;3.10;;;15.20;99.90;;;;;;5061006;28;20456;-78
2024/03/03 10:50:33;;;;;;;3.90;3.70;;;15.10;99.90;;;;;;5061812;28;20464;-78
2024/03/03 10:53:03;;;;;;;4.87;4.47;;;15.40;99.90;;;;;;5055047;28;20506;-79
2024/03/03 10:55:32;;;;;;;3.67;3.30;;;15.70;99.90;;;;;;5058992;28;20476;-79
2024/03/03 10:58:02;;;;;;;3.80;3.60;;;15.90;99.90;;;;;;5058471;28;20498;-79
2024/03/03 11:00:32;;;;;;;5.10;4.80;;;15.90;99.90;;;;;;5054642;28;20464;-79
2024/03/03 11:03:02;;;;;;;2.47;2.27;;;15.80;99.90;;;;;;5059835;28;20451;-79
2024/03/03 11:05:31;;;;;;;3.67;3.40;;;15.70;99.90;;;;;;5057584;28;20485;-77
2024/03/03 11:08:03;;;;;;;3.43;3.23;;;16.20;99.90;;;;;;5060249;28;20450;-81
2024/03/03 11:10:32;;;;;;;3.60;2.83;;;17.00;99.90;;;;;;5057483;28;20533;-80
2024/03/03 11:13:02;;;;;;;2.23;2.00;;;17.90;99.90;;;;;;5057271;28;20439;-80
2024/03/03 11:15:35;;;;;;;2.60;2.40;;;18.50;99.90;;;;;;5061046;28;20543;-82
2024/03/03 11:18:05;;;;;;;5.03;2.50;;;18.60;99.90;;;;;;5059054;28;20956;-80
2024/03/03 11:20:36;;;;;;;2.17;1.93;;;18.20;99.90;;;;;;5061406;28;20471;-80
2024/03/03 11:23:16;;;;;;;2.50;2.30;;;18.20;99.90;;;;;;5053772;28;20551;-82
2024/03/03 11:26:04;;;;;;;2.00;1.80;;;18.90;99.90;;;;;;5063248;28;20532;-82
2024/03/03 11:28:35;;;;;;;2.30;2.10;;;20.50;99.90;;;;;;5061528;28;20462;-81
2024/03/03 11:31:03;;;;;;;2.60;1.87;;;21.00;99.90;;;;;;5061480;28;20557;-81
2024/03/03 11:33:32;;;;;;;1.93;1.83;;;22.10;99.90;;;;;;5064270;28;20462;-80
2024/03/03 11:36:01;;;;;;;2.00;1.90;;;22.20;99.90;;;;;;5063302;28;20482;-80
2024/03/03 11:38:41;;;;;;;1.97;1.77;;;21.60;99.90;;;;;;5059511;28;20818;-81
2024/03/03 11:41:11;;;;;;;3.20;1.87;;;19.90;99.90;;;;;;5062107;28;20965;-79
2024/03/03 11:43:40;;;;;;;1.80;1.70;;;18.80;91.90;;;;;;5057038;28;20467;-79
2024/03/03 11:46:09;;;;;;;2.17;1.97;;;17.80;79.80;;;;;;5058911;28;20485;-84
2024/03/03 11:48:41;;;;;;;2.00;1.90;;;17.20;74.70;;;;;;5066152;28;20443;-81
2024/03/03 11:51:26;;;;;;;2.20;2.10;;;17.10;76.40;;;;;;5062086;28;20458;-79
2024/03/03 11:54:06;;;;;;;2.10;2.00;;;16.90;75.10;;;;;;5059515;28;20518;-81
2024/03/03 11:56:45;;;;;;;2.40;2.30;;;16.90;82.00;;;;;;5061476;28;20588;-84
2024/03/03 11:59:13;;;;;;;3.30;2.00;;;16.70;78.00;;;;;;5065032;28;20455;-84
2024/03/03 12:01:46;;;;;;;2.60;2.40;;;16.60;75.40;;;;;;5064041;28;20542;-83
2024/03/03 12:04:16;;;;;;;2.50;2.33;;;16.40;71.30;;;;;;5070177;28;20454;-83
2024/03/03 12:06:45;;;;;;;2.13;2.03;;;16.40;71.60;;;;;;5064264;28;20507;-80
2024/03/03 12:09:18;;;;;;;2.47;2.27;;;16.60;80.40;;;;;;5064388;28;20463;-83
2024/03/03 12:11:48;;;;;;;2.30;2.10;;;16.60;83.20;;;;;;5064027;28;20482;-79
2024/03/03 12:14:17;;;;;;;1.93;1.80;;;16.70;86.20;;;;;;5061859;28;20494;-80
2024/03/03 12:16:45;;;;;;;2.47;2.37;;;16.80;80.90;;;;;;5063632;28;20484;-80
2024/03/03 12:19:13;;;;;;;2.53;2.33;;;16.80;79.90;;;;;;5064690;28;20457;-80
2024/03/03 12:21:43;;;;;;;2.27;2.17;;;16.80;80.10;;;;;;5061542;28;20497;-84
2024/03/03 12:24:16;;;;;;;2.93;2.73;;;16.60;78.20;;;;;;5062958;28;20453;-80
2024/03/03 12:26:44;;;;;;;2.07;1.90;;;16.50;73.60;;;;;;5055570;28;20854;-79
2024/03/03 12:29:12;;;;;;;2.80;2.60;;;16.50;78.60;;;;;;5057374;28;20461;-79
2024/03/03 12:31:41;;;;;;;2.67;2.47;;;16.50;76.30;;;;;;5056751;28;20447;-80
2024/03/03 12:34:09;;;;;;;3.05;2.85;;;16.50;75.70;;;;;;5054858;28;20927;-82
2024/03/03 12:36:38;;;;;;;3.80;2.77;;;16.40;76.40;;;;;;5054948;28;20239;-78
2024/03/03 12:39:08;;;;;;;2.87;2.40;;;16.30;71.90;;;;;;5051195;28;20443;-80
2024/03/03 12:41:38;;;;;;;2.47;2.27;;;16.20;71.40;;;;;;5054475;28;20548;-77
2024/03/03 12:44:06;;;;;;;3.30;3.00;;;16.10;69.80;;;;;;5055281;28;20477;-80
2024/03/03 12:46:40;;;;;;;2.77;2.53;;;16.20;72.00;;;;;;5052303;28;21059;-82
2024/03/03 12:49:09;;;;;;;2.60;2.40;;;16.20;72.90;;;;;;5056030;28;21194;-79
2024/03/03 12:51:37;;;;;;;2.10;2.00;;;16.20;72.60;;;;;;5055180;28;20474;-78